createdAt,value
2017-11-23T00:00:16.071Z,69.60
2017-11-23T00:02:43.598Z,69.60
2017-11-23T00:05:11.089Z,69.90
2017-11-23T00:07:38.575Z,70.10
2017-11-23T00:10:06.101Z,70.40
2017-11-23T00:12:35.178Z,71.00
2017-11-23T00:15:02.719Z,71.50
2017-11-23T00:17:30.214Z,72.10
2017-11-23T00:19:57.745Z,72.80
2017-11-23T00:22:25.235Z,73.00
2017-11-23T00:24:52.751Z,72.60
2017-11-23T00:27:20.278Z,72.20
2017-11-23T00:29:48.527Z,72.50
2017-11-23T00:32:16.177Z,72.50
2017-11-23T00:34:43.669Z,72.60
2017-11-23T00:37:11.195Z,71.90
2017-11-23T00:39:38.720Z,72.10
2017-11-23T00:42:06.291Z,72.50
2017-11-23T00:44:33.788Z,72.60
2017-11-23T00:47:02.043Z,72.50
2017-11-23T00:49:29.567Z,72.50
2017-11-23T00:51:57.063Z,72.70
2017-11-23T00:54:24.683Z,72.60
2017-11-23T00:56:52.190Z,72.40
2017-11-23T00:59:19.716Z,71.30
2017-11-23T01:01:47.216Z,70.80
2017-11-23T01:04:15.502Z,70.80
2017-11-23T01:06:43.754Z,70.20
2017-11-23T01:09:11.311Z,70.20
2017-11-23T01:11:38.799Z,69.70
2017-11-23T01:14:06.301Z,69.70
2017-11-23T01:16:34.601Z,68.20
2017-11-23T01:19:02.892Z,68.50
2017-11-23T01:21:31.203Z,68.90
2017-11-23T01:23:58.711Z,68.90
2017-11-23T01:26:27.136Z,68.20
2017-11-23T01:28:55.392Z,67.60
2017-11-23T01:31:22.938Z,68.30
2017-11-23T01:33:50.438Z,67.70
2017-11-23T01:36:18.181Z,67.80
2017-11-23T01:38:45.702Z,67.10
2017-11-23T01:41:13.199Z,65.80
2017-11-23T01:43:41.490Z,65.20
2017-11-23T01:46:08.982Z,65.20
2017-11-23T01:48:36.820Z,65.30
2017-11-23T01:51:04.325Z,65.20
2017-11-23T01:53:31.862Z,65.50
2017-11-23T01:55:59.364Z,67.20
2017-11-23T01:58:26.995Z,67.10
2017-11-23T02:00:54.531Z,68.10
2017-11-23T02:03:22.051Z,67.30
2017-11-23T02:05:50.349Z,68.50
2017-11-23T02:08:18.599Z,68.90
2017-11-23T02:10:46.117Z,68.90
2017-11-23T02:13:14.381Z,68.40
2017-11-23T02:15:42.690Z,68.80
2017-11-23T02:18:10.191Z,68.80
2017-11-23T02:20:37.678Z,69.70
2017-11-23T02:25:58.010Z,69.60
2017-11-23T02:28:25.561Z,69.60
2017-11-23T02:30:53.112Z,69.80
2017-11-23T02:33:21.448Z,70.40
2017-11-23T02:35:48.940Z,70.40
2017-11-23T02:38:16.435Z,70.30
2017-11-23T02:40:44.745Z,71.00
2017-11-23T02:43:13.014Z,71.00
2017-11-23T02:45:40.559Z,70.90
2017-11-23T02:48:08.099Z,71.50
2017-11-23T02:50:35.627Z,71.90
2017-11-23T02:53:03.141Z,71.60
2017-11-23T02:55:30.675Z,72.10
2017-11-23T02:57:58.168Z,72.20
2017-11-23T03:00:25.759Z,72.80
2017-11-23T03:02:53.258Z,73.30
2017-11-23T03:05:20.787Z,73.00
2017-11-23T03:07:48.290Z,72.50
2017-11-23T03:10:15.838Z,72.20
2017-11-23T03:12:43.344Z,71.90
2017-11-23T03:15:10.878Z,71.90
2017-11-23T03:17:38.388Z,72.40
2017-11-23T03:20:05.944Z,72.40
2017-11-23T03:22:33.438Z,71.20
2017-11-23T03:25:00.962Z,71.10
2017-11-23T03:27:28.522Z,70.70
2017-11-23T03:29:56.094Z,70.50
2017-11-23T03:32:24.401Z,69.80
2017-11-23T03:34:51.925Z,69.80
2017-11-23T03:37:19.468Z,68.20
2017-11-23T03:39:46.972Z,68.20
2017-11-23T03:42:14.531Z,68.10
2017-11-23T03:44:42.038Z,68.10
2017-11-23T03:47:10.297Z,68.50
2017-11-23T03:49:37.843Z,68.60
2017-11-23T03:52:05.375Z,67.50
2017-11-23T03:54:35.532Z,67.80
2017-11-23T03:57:03.038Z,67.80
2017-11-23T03:59:30.596Z,68.00
2017-11-23T04:01:58.149Z,67.80
2017-11-23T04:04:25.652Z,68.10
2017-11-23T04:06:53.190Z,68.40
2017-11-23T04:09:24.412Z,68.30
2017-11-23T04:11:51.968Z,68.10
2017-11-23T04:14:19.468Z,68.20
2017-11-23T04:16:47.782Z,70.40
2017-11-23T04:19:15.344Z,70.40
2017-11-23T04:21:42.843Z,70.20
2017-11-23T04:24:10.381Z,70.30
2017-11-23T04:26:37.909Z,70.00
2017-11-23T04:29:05.702Z,70.70
2017-11-23T04:31:33.199Z,70.30
2017-11-23T04:34:00.739Z,71.00
2017-11-23T04:36:28.281Z,71.50
2017-11-23T04:38:55.789Z,71.80
2017-11-23T04:41:30.571Z,71.40
2017-11-23T04:43:58.076Z,72.10
2017-11-23T04:46:25.630Z,71.70
2017-11-23T04:48:53.880Z,72.20
2017-11-23T04:51:22.160Z,72.90
2017-11-23T04:53:49.739Z,72.90
2017-11-23T04:56:18.005Z,73.10
2017-11-23T04:58:45.531Z,73.10
2017-11-23T05:01:13.046Z,72.60
2017-11-23T05:03:40.572Z,72.50
2017-11-23T05:06:08.068Z,72.30
2017-11-23T05:08:37.022Z,72.50
2017-11-23T05:11:04.915Z,72.60
2017-11-23T05:13:32.831Z,72.40
2017-11-23T05:16:00.348Z,72.30
2017-11-23T05:18:27.896Z,72.30
2017-11-23T05:21:03.064Z,72.00
2017-11-23T05:23:32.515Z,72.30
2017-11-23T05:26:00.030Z,72.50
2017-11-23T05:28:27.567Z,72.80
2017-11-23T05:30:55.096Z,72.90
2017-11-23T05:33:22.670Z,74.00
2017-11-23T05:35:50.179Z,73.50
2017-11-23T05:38:17.686Z,73.50
2017-11-23T05:40:46.507Z,74.10
2017-11-23T05:43:14.055Z,73.70
2017-11-23T05:45:41.596Z,74.00
2017-11-23T05:48:09.130Z,73.90
2017-11-23T05:50:36.658Z,73.60
2017-11-23T05:53:04.210Z,73.60
2017-11-23T05:55:31.748Z,71.80
2017-11-23T05:57:59.297Z,71.50
2017-11-23T06:00:26.804Z,71.50
2017-11-23T06:02:55.111Z,71.70
2017-11-23T06:05:22.622Z,71.70
2017-11-23T06:07:50.176Z,71.10
2017-11-23T06:10:17.712Z,70.90
2017-11-23T06:12:45.258Z,71.20
2017-11-23T06:15:12.774Z,71.00
2017-11-23T06:17:40.358Z,71.20
2017-11-23T06:20:07.862Z,71.80
2017-11-23T06:22:35.395Z,71.50
2017-11-23T06:25:02.962Z,71.50
2017-11-23T06:27:30.516Z,70.80
2017-11-23T06:29:58.796Z,70.20
2017-11-23T06:32:27.168Z,71.10
2017-11-23T06:34:55.825Z,70.40
2017-11-23T06:37:23.375Z,70.40
2017-11-23T06:39:50.906Z,70.50
2017-11-23T06:42:19.227Z,70.60
2017-11-23T06:44:47.498Z,71.10
2017-11-23T06:47:15.036Z,71.10
2017-11-23T06:49:42.540Z,71.80
2017-11-23T06:52:10.089Z,71.60
2017-11-23T06:54:37.625Z,71.90
2017-11-23T06:57:05.178Z,71.70
2017-11-23T06:59:33.481Z,71.60
2017-11-23T07:02:01.021Z,71.60
2017-11-23T07:04:29.294Z,71.20
2017-11-23T07:06:56.835Z,71.20
2017-11-23T07:09:24.347Z,71.50
2017-11-23T07:11:51.907Z,71.70
2017-11-23T07:14:19.471Z,71.90
2017-11-23T07:16:48.018Z,72.30
2017-11-23T07:19:16.310Z,72.60
2017-11-23T07:21:44.624Z,72.70
2017-11-23T07:24:12.153Z,72.60
2017-11-23T07:26:40.466Z,72.30
2017-11-23T07:29:07.985Z,72.30
2017-11-23T07:31:35.532Z,72.30
2017-11-23T07:34:03.238Z,71.60
2017-11-23T07:36:30.746Z,71.80
2017-11-23T07:38:58.290Z,70.30
2017-11-23T07:41:25.843Z,69.30
2017-11-23T07:43:54.576Z,68.80
2017-11-23T07:46:22.076Z,67.90
2017-11-23T07:48:49.763Z,67.80
2017-11-23T07:51:17.309Z,67.40
2017-11-23T07:53:45.583Z,67.60
2017-11-23T07:56:13.131Z,67.60
2017-11-23T07:58:40.639Z,67.30
2017-11-23T08:01:08.954Z,67.40
2017-11-23T08:03:36.527Z,67.40
2017-11-23T08:06:06.327Z,67.40
2017-11-23T08:08:34.622Z,68.20
2017-11-23T08:11:02.900Z,68.00
2017-11-23T08:13:31.207Z,68.60
2017-11-23T08:15:59.482Z,67.60
2017-11-23T08:18:28.063Z,67.10
2017-11-23T08:20:55.588Z,67.10
2017-11-23T08:23:23.093Z,66.30
2017-11-23T08:25:50.829Z,64.90
2017-11-23T08:28:18.476Z,62.70
2017-11-23T08:30:46.795Z,57.20
2017-11-23T08:33:14.286Z,57.20
2017-11-23T08:35:41.794Z,55.50
2017-11-23T08:38:09.335Z,54.70
2017-11-23T08:40:36.979Z,53.20
2017-11-23T08:43:04.530Z,54.60
2017-11-23T08:45:32.792Z,54.60
2017-11-23T08:48:00.297Z,54.60
2017-11-23T08:50:27.871Z,52.90
2017-11-23T08:52:58.177Z,52.50
2017-11-23T08:55:26.531Z,51.40
2017-11-23T08:57:54.050Z,49.70
2017-11-23T09:00:22.376Z,53.00
2017-11-23T09:02:50.826Z,52.90
2017-11-23T09:05:20.654Z,54.30
2017-11-23T09:07:48.203Z,52.20
2017-11-23T09:10:15.707Z,50.90
2017-11-23T09:12:44.586Z,50.30
2017-11-23T09:15:12.087Z,49.00
2017-11-23T09:17:39.678Z,49.90
2017-11-23T09:20:07.204Z,50.80
2017-11-23T09:22:36.069Z,53.20
2017-11-23T09:25:03.648Z,54.90
2017-11-23T09:27:31.196Z,56.00
2017-11-23T09:29:58.752Z,56.70
2017-11-23T09:32:27.091Z,57.70
2017-11-23T09:34:54.635Z,57.60
2017-11-23T09:37:22.139Z,58.50
2017-11-23T09:39:49.687Z,58.00
2017-11-23T09:42:17.188Z,57.50
2017-11-23T09:44:44.703Z,57.30
2017-11-23T09:47:13.011Z,57.20
2017-11-23T09:49:40.515Z,57.20
2017-11-23T09:52:08.132Z,57.00
2017-11-23T09:54:36.415Z,56.10
2017-11-23T09:57:04.888Z,56.50
2017-11-23T09:59:32.400Z,56.50
2017-11-23T10:01:59.909Z,56.20
2017-11-23T10:04:27.451Z,55.90
2017-11-23T10:06:54.960Z,56.50
2017-11-23T10:09:23.410Z,55.90
2017-11-23T10:11:50.912Z,56.60
2017-11-23T10:14:24.204Z,56.70
2017-11-23T10:16:51.702Z,56.60
2017-11-23T10:19:19.218Z,56.80
2017-11-23T10:21:46.768Z,57.00
2017-11-23T10:24:14.276Z,57.30
2017-11-23T10:26:41.814Z,56.90
2017-11-23T10:29:09.302Z,57.50
2017-11-23T10:31:36.863Z,57.00
2017-11-23T10:34:04.529Z,57.20
2017-11-23T10:36:32.051Z,57.20
2017-11-23T10:38:59.606Z,57.00
2017-11-23T10:41:27.867Z,57.50
2017-11-23T10:43:55.394Z,57.40
2017-11-23T10:46:22.963Z,57.50
2017-11-23T10:48:50.510Z,57.80
2017-11-23T10:51:18.830Z,56.80
2017-11-23T10:53:46.367Z,56.70
2017-11-23T10:56:14.692Z,57.00
2017-11-23T10:58:42.203Z,57.00
2017-11-23T11:01:09.744Z,57.80
2017-11-23T11:03:37.296Z,57.70
2017-11-23T11:06:04.802Z,58.70
2017-11-23T11:08:32.345Z,58.60
2017-11-23T11:10:59.847Z,59.30
2017-11-23T11:13:27.370Z,59.40
2017-11-23T11:15:54.949Z,59.00
2017-11-23T11:18:22.452Z,59.00
2017-11-23T11:20:49.998Z,58.70
2017-11-23T11:23:17.516Z,58.20
2017-11-23T11:25:45.563Z,57.70
2017-11-23T11:28:13.099Z,57.90
2017-11-23T11:30:40.601Z,57.80
2017-11-23T11:33:08.164Z,58.20
2017-11-23T11:35:35.683Z,58.60
2017-11-23T11:38:03.195Z,58.30
2017-11-23T11:40:30.751Z,58.40
2017-11-23T11:42:58.277Z,58.20
2017-11-23T11:45:25.826Z,58.00
2017-11-23T11:47:53.336Z,58.00
2017-11-23T11:50:20.842Z,58.20
2017-11-23T11:52:49.147Z,58.90
2017-11-23T11:55:16.659Z,59.00
2017-11-23T11:57:44.211Z,58.80
2017-11-23T12:00:11.726Z,57.90
2017-11-23T12:02:39.231Z,58.60
2017-11-23T12:05:06.811Z,58.70
2017-11-23T12:07:34.313Z,59.40
2017-11-23T12:10:01.827Z,59.30
2017-11-23T12:12:29.371Z,59.70
2017-11-23T12:15:08.667Z,60.10
2017-11-23T12:20:54.780Z,60.30
2017-11-23T12:23:34.873Z,61.10
2017-11-23T12:26:03.165Z,61.10
2017-11-23T12:28:42.720Z,61.00
2017-11-23T12:31:10.997Z,61.70
2017-11-23T12:33:38.540Z,61.70
2017-11-23T12:36:06.091Z,62.10
2017-11-23T12:38:33.597Z,62.50
2017-11-23T12:41:01.113Z,62.20
2017-11-23T12:43:28.682Z,62.90
2017-11-23T12:45:56.223Z,62.80
2017-11-23T12:48:24.669Z,63.00
2017-11-23T12:50:52.262Z,62.90
2017-11-23T12:53:19.783Z,63.20
2017-11-23T12:55:47.333Z,63.00
2017-11-23T12:58:14.864Z,63.30
2017-11-23T13:00:42.431Z,63.50
2017-11-23T13:03:10.022Z,63.20
2017-11-23T13:05:37.535Z,63.50
2017-11-23T13:08:05.090Z,63.30
2017-11-23T13:10:32.593Z,62.50
2017-11-23T13:13:00.130Z,61.80
2017-11-23T13:15:27.646Z,61.00
2017-11-23T13:17:55.217Z,61.00
2017-11-23T13:20:22.735Z,61.20
2017-11-23T13:22:50.304Z,60.90
2017-11-23T13:25:17.854Z,61.60
2017-11-23T13:27:45.355Z,60.50
2017-11-23T13:30:12.900Z,60.70
2017-11-23T13:32:40.415Z,60.10
2017-11-23T13:35:07.963Z,60.40
2017-11-23T13:37:35.493Z,60.60
2017-11-23T13:40:03.096Z,60.20
2017-11-23T13:42:30.601Z,60.50
2017-11-23T13:44:58.113Z,61.20
2017-11-23T13:47:25.716Z,61.30
2017-11-23T13:49:53.222Z,60.70
2017-11-23T13:52:20.841Z,60.30
2017-11-23T13:54:48.386Z,60.30
2017-11-23T13:57:16.773Z,60.20
2017-11-23T13:59:44.845Z,60.20
2017-11-23T14:02:12.366Z,60.30
2017-11-23T14:04:39.917Z,60.60
2017-11-23T14:07:07.427Z,60.70
2017-11-23T14:09:34.982Z,61.10
2017-11-23T14:12:02.491Z,61.00
2017-11-23T14:14:30.049Z,61.30
2017-11-23T14:16:57.572Z,61.80
2017-11-23T14:19:25.096Z,61.70
2017-11-23T14:21:53.879Z,61.10
2017-11-23T14:24:21.413Z,61.60
2017-11-23T14:26:48.947Z,61.30
2017-11-23T14:29:16.455Z,61.10
2017-11-23T14:31:44.009Z,62.00
2017-11-23T14:34:12.028Z,61.90
2017-11-23T14:36:39.630Z,62.20
2017-11-23T14:39:07.907Z,62.60
2017-11-23T14:41:35.413Z,62.50
2017-11-23T14:44:03.296Z,62.70
2017-11-23T14:46:32.054Z,62.60
2017-11-23T14:48:59.616Z,63.00
2017-11-23T14:51:28.049Z,63.30
2017-11-23T14:53:55.720Z,63.30
2017-11-23T14:56:23.268Z,63.80
2017-11-23T14:58:51.640Z,63.30
2017-11-23T15:01:19.174Z,63.30
2017-11-23T15:03:46.674Z,63.10
2017-11-23T15:06:14.218Z,63.30
2017-11-23T15:08:41.818Z,63.90
2017-11-23T15:11:09.367Z,63.60
2017-11-23T15:13:36.876Z,64.00
2017-11-23T15:16:04.425Z,63.90
2017-11-23T15:18:32.770Z,64.70
2017-11-23T15:21:00.292Z,64.60
2017-11-23T15:23:27.846Z,65.30
2017-11-23T15:25:55.356Z,65.80
2017-11-23T15:28:22.905Z,65.60
2017-11-23T15:30:51.203Z,66.00
2017-11-23T15:33:19.594Z,65.80
2017-11-23T15:35:47.160Z,65.80
2017-11-23T15:38:14.883Z,66.00
2017-11-23T15:40:42.488Z,66.20
2017-11-23T15:43:10.004Z,66.20
2017-11-23T15:45:37.583Z,66.40
2017-11-23T15:48:05.121Z,66.30
2017-11-23T15:50:32.718Z,66.30
2017-11-23T15:53:00.277Z,66.50
2017-11-23T15:55:27.852Z,65.80
2017-11-23T15:57:55.384Z,66.20
2017-11-23T16:00:23.711Z,65.90
2017-11-23T16:02:52.958Z,65.70
2017-11-23T16:05:20.491Z,65.90
2017-11-23T16:07:48.823Z,66.40
2017-11-23T16:10:17.913Z,66.40
2017-11-23T16:12:45.511Z,66.90
2017-11-23T16:15:13.018Z,67.30
2017-11-23T16:17:40.576Z,67.00
2017-11-23T16:20:08.091Z,67.50
2017-11-23T16:22:35.672Z,67.50
2017-11-23T16:25:05.329Z,67.80
2017-11-23T16:27:32.922Z,68.00
2017-11-23T16:30:00.522Z,68.30
2017-11-23T16:32:28.053Z,68.20
2017-11-23T16:34:55.626Z,68.10
2017-11-23T16:37:23.795Z,68.10
2017-11-23T16:39:52.939Z,68.10
2017-11-23T16:45:39.483Z,67.40
2017-11-23T16:48:13.356Z,67.00
2017-11-23T16:54:02.428Z,66.90
2017-11-23T16:56:45.675Z,67.40
2017-11-23T16:59:18.891Z,67.60
2017-11-23T17:01:52.813Z,68.40
2017-11-23T17:07:28.215Z,68.50
2017-11-23T17:10:01.456Z,69.00
2017-11-23T17:12:34.548Z,68.80
2017-11-23T17:18:15.521Z,68.80
2017-11-23T17:20:43.037Z,69.10
2017-11-23T17:23:10.564Z,69.00
2017-11-23T17:25:38.114Z,69.00
2017-11-23T17:28:05.756Z,69.20
2017-11-23T17:30:33.350Z,69.10
2017-11-23T17:33:00.955Z,69.50
2017-11-23T17:35:29.869Z,69.80
2017-11-23T17:37:57.398Z,69.90
2017-11-23T17:40:24.951Z,70.60
2017-11-23T17:42:52.478Z,70.70
2017-11-23T17:45:20.019Z,70.90
2017-11-23T17:47:47.525Z,72.30
2017-11-23T17:50:15.079Z,73.20
2017-11-23T17:52:42.720Z,74.10
2017-11-23T17:55:10.240Z,75.30
2017-11-23T17:57:37.820Z,76.50
2017-11-23T18:00:05.319Z,77.20
2017-11-23T18:02:32.909Z,79.50
2017-11-23T18:05:00.428Z,81.60
2017-11-23T18:07:28.353Z,84.10
2017-11-23T18:09:56.236Z,84.80
2017-11-23T18:12:23.824Z,85.50
2017-11-23T18:14:51.355Z,86.90
2017-11-23T18:17:18.881Z,87.60
2017-11-23T18:19:46.420Z,87.90
2017-11-23T18:22:13.959Z,87.70
2017-11-23T18:24:41.548Z,88.60
2017-11-23T18:27:09.093Z,88.70
2017-11-23T18:29:36.652Z,89.40
2017-11-23T18:32:04.161Z,89.90
2017-11-23T18:34:34.995Z,90.00
2017-11-23T18:37:02.840Z,90.00
2017-11-23T18:39:30.371Z,90.00
2017-11-23T18:41:58.656Z,90.60
2017-11-23T18:44:27.547Z,90.60
2017-11-23T18:46:55.065Z,90.60
2017-11-23T18:49:22.620Z,90.70
2017-11-23T18:51:50.120Z,90.90
2017-11-23T18:54:17.661Z,91.10
2017-11-23T18:56:45.166Z,91.20
2017-11-23T18:59:12.723Z,91.50
2017-11-23T19:01:40.242Z,91.90
2017-11-23T19:04:08.547Z,92.30
2017-11-23T19:06:36.811Z,92.20
2017-11-23T19:09:04.368Z,92.10
2017-11-23T19:11:31.891Z,92.20
2017-11-23T19:13:59.446Z,92.50
2017-11-23T19:16:26.985Z,92.80
2017-11-23T19:18:54.595Z,92.70
2017-11-23T19:21:23.603Z,92.70
2017-11-23T19:23:52.069Z,92.70
2017-11-23T19:26:19.687Z,92.70
2017-11-23T19:28:47.258Z,92.80
2017-11-23T19:31:14.795Z,92.80
2017-11-23T19:33:42.355Z,92.80
2017-11-23T19:36:09.873Z,92.70
2017-11-23T19:38:37.422Z,92.70
2017-11-23T19:41:05.714Z,92.80
2017-11-23T19:43:33.267Z,92.70
2017-11-23T19:46:01.827Z,92.70
2017-11-23T19:48:32.503Z,92.80
2017-11-23T19:51:00.282Z,92.90
2017-11-23T19:53:27.859Z,93.00
2017-11-23T19:55:55.384Z,93.20
2017-11-23T19:58:22.905Z,93.90
2017-11-23T20:00:50.717Z,94.30
2017-11-23T20:03:18.989Z,94.50
2017-11-23T20:05:46.600Z,94.50
2017-11-23T20:08:14.147Z,94.50
2017-11-23T20:10:41.726Z,94.50
2017-11-23T20:13:10.671Z,94.40
2017-11-23T20:15:38.184Z,94.40
2017-11-23T20:18:05.773Z,94.20
2017-11-23T20:20:36.475Z,94.10
2017-11-23T20:23:04.061Z,94.00
2017-11-23T20:25:31.672Z,93.90
2017-11-23T20:27:59.349Z,93.90
2017-11-23T20:30:26.935Z,93.90
2017-11-23T20:32:54.604Z,93.90
2017-11-23T20:35:22.129Z,94.00
2017-11-23T20:37:49.659Z,93.80
2017-11-23T20:40:17.250Z,93.70
2017-11-23T20:42:44.763Z,93.70
2017-11-23T20:45:13.080Z,93.70
2017-11-23T20:47:40.613Z,93.70
2017-11-23T20:50:08.206Z,93.70
2017-11-23T20:52:36.487Z,93.60
2017-11-23T20:55:04.064Z,93.60
2017-11-23T20:57:32.365Z,92.80
2017-11-23T20:59:59.896Z,92.80
2017-11-23T21:02:27.507Z,92.80
2017-11-23T21:04:55.026Z,92.80
2017-11-23T21:07:22.612Z,92.80
2017-11-23T21:09:50.148Z,92.90
2017-11-23T21:12:17.702Z,92.90
2017-11-23T21:14:45.307Z,93.00
2017-11-23T21:17:12.855Z,93.10
2017-11-23T21:19:40.376Z,93.10
2017-11-23T21:22:07.938Z,93.20
2017-11-23T21:24:35.687Z,93.20
2017-11-23T21:27:03.219Z,93.20
2017-11-23T21:29:31.588Z,93.80
2017-11-23T21:31:59.163Z,93.30
2017-11-23T21:34:26.735Z,93.10
2017-11-23T21:36:54.315Z,92.90
2017-11-23T21:39:21.869Z,92.80
2017-11-23T21:41:49.392Z,92.80
2017-11-23T21:44:16.944Z,92.70
2017-11-23T21:46:45.219Z,92.60
2017-11-23T21:49:12.927Z,92.60
2017-11-23T21:51:40.453Z,92.60
2017-11-23T21:54:07.968Z,92.50
2017-11-23T21:56:36.284Z,92.80
2017-11-23T21:59:04.212Z,92.80
2017-11-23T22:01:31.764Z,92.80
2017-11-23T22:03:59.274Z,93.00
2017-11-23T22:06:26.856Z,93.10
2017-11-23T22:08:54.383Z,93.10
2017-11-23T22:11:21.895Z,93.20
2017-11-23T22:13:49.451Z,93.30
2017-11-23T22:16:17.741Z,93.50
2017-11-23T22:18:45.289Z,93.40
2017-11-23T22:21:12.830Z,93.50
2017-11-23T22:23:40.385Z,93.60
2017-11-23T22:26:07.908Z,93.70
2017-11-23T22:28:35.453Z,93.70
2017-11-23T22:31:02.980Z,93.80
2017-11-23T22:33:31.307Z,93.80
2017-11-23T22:35:58.836Z,94.10
2017-11-23T22:38:26.358Z,93.90
2017-11-23T22:40:54.663Z,94.00
2017-11-23T22:43:22.184Z,94.00
2017-11-23T22:45:49.722Z,94.10
2017-11-23T22:48:17.223Z,94.10
2017-11-23T22:50:45.546Z,94.10
2017-11-23T22:53:13.084Z,94.10
2017-11-23T22:55:41.368Z,93.90
2017-11-23T22:58:09.696Z,93.90
2017-11-23T23:00:37.203Z,93.80
2017-11-23T23:03:04.782Z,93.90
2017-11-23T23:05:32.285Z,94.00
2017-11-23T23:07:59.832Z,94.10
2017-11-23T23:10:28.120Z,94.10
2017-11-23T23:12:55.637Z,94.20
2017-11-23T23:15:23.170Z,94.30
2017-11-23T23:17:50.676Z,94.30
2017-11-23T23:20:18.218Z,94.30
2017-11-23T23:22:46.497Z,94.40
2017-11-23T23:25:14.889Z,94.40
2017-11-23T23:27:42.386Z,94.40
2017-11-23T23:30:10.699Z,94.50
2017-11-23T23:32:38.216Z,94.50
2017-11-23T23:35:05.785Z,94.50
2017-11-23T23:37:33.287Z,94.60
2017-11-23T23:40:00.801Z,94.50
2017-11-23T23:42:28.348Z,94.50
2017-11-23T23:44:55.857Z,94.60
2017-11-23T23:47:23.411Z,94.70
2017-11-23T23:49:50.940Z,94.70
2017-11-23T23:52:19.247Z,94.60
2017-11-23T23:54:46.754Z,94.50
2017-11-23T23:57:14.292Z,94.70
2017-11-23T23:59:41.803Z,94.90
